createdAt,value
2023-04-09T00:01:07.348Z,6.51
2023-04-09T00:01:29.853Z,6.52
2023-04-09T00:03:56.361Z,6.50
2023-04-09T00:06:07.248Z,6.50
2023-04-09T00:06:22.808Z,6.33
2023-04-09T00:08:49.369Z,6.30
2023-04-09T00:11:07.212Z,6.30
2023-04-09T00:11:15.942Z,6.08
2023-04-09T00:13:42.341Z,6.43
2023-04-09T00:16:07.270Z,6.43
2023-04-09T00:16:08.912Z,6.42
2023-04-09T00:18:35.647Z,5.89
2023-04-09T00:21:02.185Z,6.33
2023-04-09T00:21:07.253Z,6.33
2023-04-09T00:23:28.633Z,6.21
2023-04-09T00:25:55.157Z,6.27
2023-04-09T00:26:07.250Z,6.27
2023-04-09T00:28:21.645Z,5.89
2023-04-09T00:30:48.039Z,5.76
2023-04-09T00:31:07.238Z,5.76
2023-04-09T00:33:14.459Z,5.85
2023-04-09T00:35:41.136Z,5.96
2023-04-09T00:36:07.266Z,5.96
2023-04-09T00:38:07.558Z,5.62
2023-04-09T00:40:33.994Z,5.95
2023-04-09T00:41:07.227Z,5.95
2023-04-09T00:43:01.101Z,5.89
2023-04-09T00:45:27.619Z,5.86
2023-04-09T00:46:07.327Z,5.86
2023-04-09T00:47:54.402Z,5.76
2023-04-09T00:50:21.504Z,5.69
2023-04-09T00:51:07.256Z,5.69
2023-04-09T00:52:47.998Z,5.49
2023-04-09T00:55:14.964Z,5.62
2023-04-09T00:56:07.335Z,5.62
2023-04-09T00:57:41.354Z,5.60
2023-04-09T01:00:08.481Z,5.52
2023-04-09T01:01:07.244Z,5.52
2023-04-09T01:02:35.189Z,5.50
2023-04-09T01:05:02.024Z,5.01
2023-04-09T01:06:07.261Z,5.01
2023-04-09T01:07:36.916Z,5.32
2023-04-09T01:10:15.432Z,5.05
2023-04-09T01:11:07.240Z,5.05
2023-04-09T01:13:00.461Z,5.36
2023-04-09T01:15:31.249Z,4.76
2023-04-09T01:16:07.284Z,4.76
2023-04-09T01:18:23.528Z,5.26
2023-04-09T01:21:02.789Z,3.88
2023-04-09T01:21:07.242Z,3.88
2023-04-09T01:23:32.435Z,4.78
2023-04-09T01:26:17.032Z,4.40
2023-04-09T01:26:17.188Z,4.40
2023-04-09T01:28:46.471Z,4.74
2023-04-09T01:31:07.402Z,4.74
2023-04-09T01:31:15.014Z,4.74
2023-04-09T01:33:42.282Z,4.85
2023-04-09T01:36:07.325Z,4.85
2023-04-09T01:36:09.573Z,4.40
2023-04-09T01:38:39.027Z,4.59
2023-04-09T01:41:07.590Z,4.40
2023-04-09T01:41:08.263Z,4.40
2023-04-09T01:43:34.818Z,4.78
2023-04-09T01:46:03.395Z,4.80
2023-04-09T01:46:07.287Z,4.80
2023-04-09T01:48:31.469Z,4.82
2023-04-09T01:50:59.083Z,4.85
2023-04-09T01:51:07.262Z,4.85
2023-04-09T01:53:28.281Z,4.78
2023-04-09T01:55:58.142Z,4.86
2023-04-09T01:56:07.266Z,4.86
2023-04-09T01:58:25.609Z,4.49
2023-04-09T02:01:03.496Z,4.92
2023-04-09T02:01:07.290Z,4.92
2023-04-09T02:03:37.886Z,4.85
2023-04-09T02:06:17.180Z,4.83
2023-04-09T02:06:17.352Z,4.83
2023-04-09T02:08:47.082Z,5.06
2023-04-09T02:11:07.223Z,5.06
2023-04-09T02:11:15.843Z,5.06
2023-04-09T02:13:43.345Z,5.05
2023-04-09T02:16:07.257Z,5.05
2023-04-09T02:16:12.970Z,4.70
2023-04-09T02:18:39.409Z,5.07
2023-04-09T02:21:06.481Z,5.11
2023-04-09T02:21:07.245Z,5.11
2023-04-09T02:23:33.503Z,4.59
2023-04-09T02:25:59.840Z,5.07
2023-04-09T02:26:07.243Z,5.07
2023-04-09T02:28:26.202Z,4.95
2023-04-09T02:30:52.749Z,4.99
2023-04-09T02:31:07.331Z,4.99
2023-04-09T02:33:19.182Z,4.91
2023-04-09T02:35:45.787Z,4.85
2023-04-09T02:36:07.331Z,4.85
2023-04-09T02:38:16.021Z,4.79
2023-04-09T02:40:42.754Z,4.72
2023-04-09T02:41:07.256Z,4.72
2023-04-09T02:43:09.808Z,4.09
2023-04-09T02:45:36.372Z,4.38
2023-04-09T02:46:07.352Z,4.38
2023-04-09T02:48:02.750Z,4.46
2023-04-09T02:50:29.505Z,4.39
2023-04-09T02:51:07.243Z,4.39
2023-04-09T02:52:55.973Z,3.81
2023-04-09T02:55:22.482Z,4.30
2023-04-09T02:56:07.295Z,4.30
2023-04-09T02:57:48.892Z,4.09
2023-04-09T03:00:15.337Z,3.87
2023-04-09T03:01:07.279Z,3.87
2023-04-09T03:02:42.019Z,4.13
2023-04-09T03:05:08.895Z,3.66
2023-04-09T03:06:07.283Z,3.66
2023-04-09T03:07:35.303Z,3.70
2023-04-09T03:10:01.737Z,3.48
2023-04-09T03:11:07.280Z,3.48
2023-04-09T03:12:28.190Z,3.79
2023-04-09T03:14:54.618Z,3.80
2023-04-09T03:16:07.393Z,3.80
2023-04-09T03:17:21.144Z,3.74
2023-04-09T03:19:47.475Z,3.38
2023-04-09T03:21:07.287Z,3.38
2023-04-09T03:22:13.934Z,3.69
2023-04-09T03:24:40.482Z,3.66
2023-04-09T03:26:07.293Z,3.66
2023-04-09T03:27:06.811Z,3.59
2023-04-09T03:29:33.164Z,3.61
2023-04-09T03:31:07.336Z,3.61
2023-04-09T03:31:59.524Z,3.57
2023-04-09T03:34:25.901Z,3.53
2023-04-09T03:36:07.344Z,3.53
2023-04-09T03:36:52.251Z,3.49
2023-04-09T03:39:18.602Z,3.43
2023-04-09T03:41:07.288Z,3.43
2023-04-09T03:41:45.013Z,3.41
2023-04-09T03:44:11.370Z,3.36
2023-04-09T03:46:07.383Z,3.36
2023-04-09T03:46:37.771Z,1.61
2023-04-09T03:49:04.298Z,3.33
2023-04-09T03:51:07.297Z,3.33
2023-04-09T03:51:31.781Z,3.29
2023-04-09T03:53:58.113Z,3.29
2023-04-09T03:56:07.311Z,3.29
2023-04-09T03:56:24.439Z,2.70
2023-04-09T03:58:51.023Z,3.23
2023-04-09T04:01:07.330Z,3.23
2023-04-09T04:01:17.667Z,3.14
2023-04-09T04:03:44.231Z,3.11
2023-04-09T04:06:07.284Z,3.11
2023-04-09T04:06:10.732Z,3.13
2023-04-09T04:08:37.089Z,2.53
2023-04-09T04:11:05.019Z,2.99
2023-04-09T04:11:07.307Z,2.99
2023-04-09T04:13:31.781Z,2.97
2023-04-09T04:15:58.210Z,2.34
2023-04-09T04:16:07.398Z,2.34
2023-04-09T04:18:24.617Z,2.92
2023-04-09T04:20:51.183Z,2.76
2023-04-09T04:21:07.264Z,2.76
2023-04-09T04:23:17.610Z,2.86
2023-04-09T04:25:43.959Z,2.85
2023-04-09T04:26:07.293Z,2.85
2023-04-09T04:28:10.356Z,2.63
2023-04-09T04:30:36.783Z,2.78
2023-04-09T04:31:07.341Z,2.78
2023-04-09T04:33:03.302Z,2.23
2023-04-09T04:35:29.691Z,2.77
2023-04-09T04:36:07.310Z,2.77
2023-04-09T04:37:56.162Z,2.74
2023-04-09T04:40:22.538Z,2.76
2023-04-09T04:41:07.304Z,2.76
2023-04-09T04:42:49.005Z,2.59
2023-04-09T04:45:15.482Z,2.72
2023-04-09T04:46:07.329Z,2.72
2023-04-09T04:47:41.914Z,2.73
2023-04-09T04:50:09.074Z,2.68
2023-04-09T04:51:07.311Z,2.68
2023-04-09T04:52:36.496Z,2.69
2023-04-09T04:55:02.942Z,2.67
2023-04-09T04:56:07.356Z,2.67
2023-04-09T04:57:29.358Z,2.63
2023-04-09T04:59:55.757Z,2.63
2023-04-09T05:01:07.344Z,2.63
2023-04-09T05:02:22.288Z,2.64
2023-04-09T05:04:48.688Z,2.10
2023-04-09T05:06:07.310Z,2.10
2023-04-09T05:07:15.538Z,2.40
2023-04-09T05:09:42.905Z,2.11
2023-04-09T05:11:07.310Z,2.11
2023-04-09T05:12:11.913Z,2.70
2023-04-09T05:14:38.212Z,2.46
2023-04-09T05:16:07.307Z,2.46
2023-04-09T05:17:04.790Z,2.73
2023-04-09T05:19:33.598Z,2.75
2023-04-09T05:21:07.295Z,2.75
2023-04-09T05:22:00.065Z,2.71
2023-04-09T05:24:26.434Z,2.78
2023-04-09T05:26:07.289Z,2.78
2023-04-09T05:26:52.823Z,2.84
2023-04-09T05:29:19.145Z,2.92
2023-04-09T05:31:07.369Z,2.92
2023-04-09T05:31:45.582Z,3.00
2023-04-09T05:34:12.050Z,3.08
2023-04-09T05:36:07.363Z,3.08
2023-04-09T05:36:38.383Z,3.17
2023-04-09T05:39:04.785Z,3.20
2023-04-09T05:41:07.290Z,3.20
2023-04-09T05:41:32.592Z,3.34
2023-04-09T05:44:00.844Z,2.70
2023-04-09T05:46:07.350Z,2.70
2023-04-09T05:46:30.016Z,3.57
2023-04-09T05:48:56.668Z,3.71
2023-04-09T05:51:07.301Z,3.71
2023-04-09T05:51:23.070Z,3.83
2023-04-09T05:53:49.902Z,3.93
2023-04-09T05:56:07.321Z,3.93
2023-04-09T05:56:16.525Z,3.95
2023-04-09T05:58:42.917Z,3.91
2023-04-09T06:01:07.302Z,3.91
2023-04-09T06:01:10.218Z,3.91
2023-04-09T06:03:36.898Z,4.21
2023-04-09T06:06:03.436Z,4.06
2023-04-09T06:06:07.383Z,4.06
2023-04-09T06:08:29.846Z,4.36
2023-04-09T06:10:56.261Z,4.45
2023-04-09T06:11:07.347Z,4.45
2023-04-09T06:13:22.739Z,4.56
2023-04-09T06:15:49.137Z,4.68
2023-04-09T06:16:07.409Z,4.68
2023-04-09T06:18:15.653Z,4.83
2023-04-09T06:20:41.981Z,4.91
2023-04-09T06:21:07.343Z,4.91
2023-04-09T06:23:08.329Z,4.60
2023-04-09T06:25:36.426Z,4.53
2023-04-09T06:26:07.354Z,4.53
2023-04-09T06:28:03.140Z,5.02
2023-04-09T06:30:30.925Z,5.53
2023-04-09T06:31:08.532Z,5.53
2023-04-09T06:32:57.266Z,5.65
2023-04-09T06:35:23.733Z,5.46
2023-04-09T06:36:07.415Z,5.46
2023-04-09T06:37:50.315Z,5.67
2023-04-09T06:40:16.721Z,6.05
2023-04-09T06:41:07.354Z,6.05
2023-04-09T06:42:43.153Z,6.18
2023-04-09T06:45:12.126Z,6.40
2023-04-09T06:46:07.397Z,6.40
2023-04-09T06:47:38.530Z,6.39
2023-04-09T06:50:05.644Z,6.37
2023-04-09T06:51:07.363Z,6.37
2023-04-09T06:52:32.055Z,6.80
2023-04-09T06:54:58.436Z,6.96
2023-04-09T06:56:07.339Z,6.96
2023-04-09T06:57:26.239Z,5.92
2023-04-09T06:59:52.711Z,7.30
2023-04-09T07:01:07.349Z,7.30
2023-04-09T07:02:19.223Z,6.97
2023-04-09T07:04:45.926Z,7.63
2023-04-09T07:06:07.351Z,7.63
2023-04-09T07:07:12.575Z,7.77
2023-04-09T07:09:39.245Z,7.85
2023-04-09T07:11:07.361Z,7.85
2023-04-09T07:12:05.702Z,8.04
2023-04-09T07:14:32.100Z,8.16
2023-04-09T07:16:07.350Z,8.16
2023-04-09T07:16:58.541Z,8.35
2023-04-09T07:19:24.892Z,8.18
2023-04-09T07:21:07.309Z,8.18
2023-04-09T07:21:51.377Z,8.45
2023-04-09T07:24:17.827Z,8.61
2023-04-09T07:26:07.354Z,8.61
2023-04-09T07:26:44.227Z,8.68
2023-04-09T07:29:10.602Z,8.55
2023-04-09T07:31:07.422Z,8.55
2023-04-09T07:31:37.111Z,8.94
2023-04-09T07:34:03.686Z,9.03
2023-04-09T07:36:07.340Z,9.03
2023-04-09T07:36:31.806Z,9.12
2023-04-09T07:38:58.261Z,9.19
2023-04-09T07:41:07.347Z,9.19
2023-04-09T07:41:24.726Z,9.14
2023-04-09T07:43:51.455Z,9.41
2023-04-09T07:46:07.389Z,9.41
2023-04-09T07:46:21.707Z,9.50
2023-04-09T07:48:49.965Z,9.51
2023-04-09T07:51:07.336Z,9.51
2023-04-09T07:51:16.602Z,9.77
2023-04-09T07:53:43.038Z,9.88
2023-04-09T07:56:07.346Z,9.88
2023-04-09T07:56:09.388Z,9.95
2023-04-09T07:58:38.006Z,10.08
2023-04-09T08:01:04.788Z,10.22
2023-04-09T08:01:07.360Z,10.22
2023-04-09T08:03:31.581Z,10.19
2023-04-09T08:05:58.142Z,9.81
2023-04-09T08:06:07.366Z,9.81
2023-04-09T08:08:25.045Z,10.35
2023-04-09T08:10:51.551Z,10.45
2023-04-09T08:11:07.366Z,10.45
2023-04-09T08:13:17.960Z,10.55
2023-04-09T08:15:44.366Z,10.56
2023-04-09T08:16:07.351Z,10.56
2023-04-09T08:18:10.823Z,10.72
2023-04-09T08:20:37.838Z,10.86
2023-04-09T08:21:07.348Z,10.86
2023-04-09T08:23:04.260Z,10.92
2023-04-09T08:25:30.906Z,10.98
2023-04-09T08:26:07.339Z,10.98
2023-04-09T08:27:58.122Z,11.13
2023-04-09T08:30:24.581Z,10.98
2023-04-09T08:31:07.422Z,10.98
2023-04-09T08:32:50.996Z,11.17
2023-04-09T08:35:17.478Z,11.28
2023-04-09T08:36:07.397Z,11.28
2023-04-09T08:37:43.936Z,11.40
2023-04-09T08:40:11.654Z,11.37
2023-04-09T08:41:07.361Z,11.37
2023-04-09T08:42:45.846Z,11.62
2023-04-09T08:45:12.932Z,11.65
2023-04-09T08:46:07.390Z,11.65
2023-04-09T08:47:42.578Z,11.68
2023-04-09T08:50:09.264Z,11.79
2023-04-09T08:51:07.362Z,11.79
2023-04-09T08:52:36.969Z,11.55
2023-04-09T08:55:03.621Z,12.08
2023-04-09T08:56:07.390Z,12.08
2023-04-09T08:57:30.403Z,12.13
2023-04-09T08:59:57.087Z,12.45
2023-04-09T09:01:07.434Z,12.45
2023-04-09T09:02:24.250Z,12.24
2023-04-09T09:04:50.906Z,12.41
2023-04-09T09:06:07.340Z,12.41
2023-04-09T09:07:18.194Z,12.49
2023-04-09T09:09:56.143Z,12.63
2023-04-09T09:11:07.340Z,12.63
2023-04-09T09:12:32.822Z,12.66
2023-04-09T09:14:59.626Z,12.72
2023-04-09T09:16:07.334Z,12.72
2023-04-09T09:17:26.511Z,12.72
2023-04-09T09:19:52.926Z,12.81
2023-04-09T09:21:07.569Z,12.81
2023-04-09T09:22:19.306Z,12.86
2023-04-09T09:24:51.127Z,13.17
2023-04-09T09:26:07.385Z,13.17
2023-04-09T09:27:40.250Z,12.86
2023-04-09T09:30:08.690Z,13.17
2023-04-09T09:31:07.474Z,13.17
2023-04-09T09:32:35.828Z,13.29
2023-04-09T09:35:05.647Z,13.37
2023-04-09T09:36:07.392Z,13.37
2023-04-09T09:37:32.853Z,13.50
2023-04-09T09:40:00.251Z,13.22
2023-04-09T09:41:07.423Z,13.22
2023-04-09T09:42:32.741Z,13.46
2023-04-09T09:45:02.515Z,13.52
2023-04-09T09:46:07.398Z,13.52
2023-04-09T09:47:38.875Z,13.68
2023-04-09T09:50:05.852Z,13.50
2023-04-09T09:51:07.346Z,13.50
2023-04-09T09:52:32.497Z,13.25
2023-04-09T09:55:05.251Z,13.61
2023-04-09T09:56:07.342Z,13.61
2023-04-09T09:57:42.502Z,13.60
2023-04-09T10:00:12.500Z,13.20
2023-04-09T10:01:07.391Z,13.20
2023-04-09T10:02:56.595Z,13.44
2023-04-09T10:05:26.781Z,13.61
2023-04-09T10:06:07.348Z,13.61
2023-04-09T10:07:57.256Z,13.84
2023-04-09T10:10:25.836Z,14.03
2023-04-09T10:11:07.395Z,14.03
2023-04-09T10:12:52.653Z,14.28
2023-04-09T10:15:19.786Z,14.50
2023-04-09T10:16:07.480Z,14.50
2023-04-09T10:17:46.319Z,14.55
2023-04-09T10:20:19.614Z,14.69
2023-04-09T10:21:07.365Z,14.69
2023-04-09T10:22:49.152Z,14.73
2023-04-09T10:25:16.454Z,14.70
2023-04-09T10:26:07.349Z,14.70
2023-04-09T10:27:46.108Z,14.84
2023-04-09T10:30:34.580Z,15.18
2023-04-09T10:31:07.651Z,15.18
2023-04-09T10:33:13.797Z,15.24
2023-04-09T10:35:40.322Z,15.01
2023-04-09T10:36:07.419Z,15.01
2023-04-09T10:38:10.764Z,15.01
2023-04-09T10:40:42.384Z,15.06
2023-04-09T10:41:07.358Z,15.06
2023-04-09T10:43:10.385Z,14.42
2023-04-09T10:45:41.802Z,14.69
2023-04-09T10:46:07.411Z,14.69
2023-04-09T10:48:14.778Z,15.08
2023-04-09T10:50:44.646Z,14.90
2023-04-09T10:51:07.359Z,14.90
2023-04-09T10:53:26.378Z,15.05
2023-04-09T10:55:54.052Z,15.04
2023-04-09T10:56:07.402Z,15.04
2023-04-09T10:58:20.494Z,15.54
2023-04-09T11:00:48.488Z,15.41
2023-04-09T11:01:07.370Z,15.41
2023-04-09T11:03:28.912Z,15.25
2023-04-09T11:05:57.713Z,15.11
2023-04-09T11:06:07.393Z,15.11
2023-04-09T11:08:27.667Z,14.42
2023-04-09T11:10:58.347Z,14.95
2023-04-09T11:11:07.385Z,14.95
2023-04-09T11:13:25.437Z,15.25
2023-04-09T11:15:51.877Z,15.25
2023-04-09T11:16:07.649Z,15.25
2023-04-09T11:18:23.651Z,14.97
2023-04-09T11:20:50.543Z,14.60
2023-04-09T11:21:07.405Z,14.60
2023-04-09T11:23:17.811Z,15.11
2023-04-09T11:25:49.671Z,15.79
2023-04-09T11:26:07.382Z,15.79
2023-04-09T11:28:16.305Z,15.99
2023-04-09T11:30:43.680Z,15.84
2023-04-09T11:31:07.601Z,15.84
2023-04-09T11:33:10.495Z,15.27
2023-04-09T11:35:37.379Z,14.87
2023-04-09T11:36:07.505Z,14.87
2023-04-09T11:38:11.262Z,14.72
2023-04-09T11:40:47.579Z,15.00
2023-04-09T11:41:07.376Z,15.00
2023-04-09T11:43:16.561Z,15.86
2023-04-09T11:45:44.230Z,16.68
2023-04-09T11:46:07.361Z,16.68
2023-04-09T11:48:11.596Z,16.79
2023-04-09T11:50:38.123Z,17.06
2023-04-09T11:51:07.360Z,17.06
2023-04-09T11:53:18.389Z,15.77
2023-04-09T11:55:47.760Z,15.93
2023-04-09T11:56:07.430Z,15.93
2023-04-09T11:58:14.849Z,15.29
2023-04-09T12:00:41.383Z,14.86
2023-04-09T12:01:07.368Z,14.86
2023-04-09T12:03:08.227Z,13.76
2023-04-09T12:05:39.165Z,14.13
2023-04-09T12:06:07.398Z,14.13
2023-04-09T12:08:08.304Z,15.72
2023-04-09T12:10:38.089Z,15.54
2023-04-09T12:11:07.388Z,15.54
2023-04-09T12:13:10.431Z,16.00
2023-04-09T12:15:38.533Z,16.09
2023-04-09T12:16:07.531Z,16.09
2023-04-09T12:18:08.753Z,15.84
2023-04-09T12:20:39.409Z,15.87
2023-04-09T12:21:07.382Z,15.87
2023-04-09T12:23:07.348Z,16.39
2023-04-09T12:25:36.508Z,15.90
2023-04-09T12:26:07.462Z,15.90
2023-04-09T12:28:07.272Z,16.25
2023-04-09T12:30:34.798Z,16.13
2023-04-09T12:31:07.362Z,16.13
2023-04-09T12:33:01.439Z,16.25
2023-04-09T12:35:28.310Z,16.66
2023-04-09T12:36:07.454Z,16.66
2023-04-09T12:37:55.151Z,16.59
2023-04-09T12:40:22.327Z,16.77
2023-04-09T12:41:07.352Z,16.77
2023-04-09T12:42:48.988Z,16.46
2023-04-09T12:45:17.424Z,16.80
2023-04-09T12:46:07.471Z,16.80
2023-04-09T12:47:44.654Z,17.13
2023-04-09T12:50:12.836Z,16.72
2023-04-09T12:51:07.384Z,16.72
2023-04-09T12:52:39.342Z,16.70
2023-04-09T12:55:06.550Z,17.37
2023-04-09T12:56:07.387Z,17.37
2023-04-09T12:57:33.115Z,18.16
2023-04-09T13:00:00.087Z,18.32
2023-04-09T13:01:07.507Z,18.32
2023-04-09T13:02:26.857Z,17.24
2023-04-09T13:04:53.452Z,17.27
2023-04-09T13:06:07.448Z,17.27
2023-04-09T13:07:20.357Z,17.66
2023-04-09T13:09:48.921Z,17.07
2023-04-09T13:11:07.401Z,17.07
2023-04-09T13:12:16.241Z,18.09
2023-04-09T13:14:46.730Z,18.57
2023-04-09T13:16:07.511Z,18.57
2023-04-09T13:17:13.298Z,18.61
2023-04-09T13:19:42.011Z,18.79
2023-04-09T13:21:07.431Z,18.79
2023-04-09T13:22:09.177Z,19.27
2023-04-09T13:24:36.195Z,19.41
2023-04-09T13:26:07.447Z,19.41
2023-04-09T13:27:04.580Z,19.23
2023-04-09T13:29:31.354Z,19.05
2023-04-09T13:31:07.450Z,19.05
2023-04-09T13:31:58.410Z,18.29
2023-04-09T13:34:25.276Z,17.92
2023-04-09T13:36:07.493Z,17.92
2023-04-09T13:36:51.786Z,18.10
2023-04-09T13:39:18.151Z,17.01
2023-04-09T13:41:07.438Z,17.01
2023-04-09T13:41:44.591Z,16.89
2023-04-09T13:44:11.358Z,16.48
2023-04-09T13:46:07.507Z,16.48
2023-04-09T13:46:37.839Z,16.84
2023-04-09T13:49:04.243Z,17.28
2023-04-09T13:51:07.416Z,17.28
2023-04-09T13:51:33.182Z,17.65
2023-04-09T13:53:59.633Z,17.96
2023-04-09T13:56:07.416Z,17.96
2023-04-09T13:56:27.461Z,17.72
2023-04-09T13:58:54.489Z,17.71
2023-04-09T14:01:08.137Z,17.71
2023-04-09T14:01:21.469Z,17.74
2023-04-09T14:03:48.007Z,17.64
2023-04-09T14:06:07.420Z,17.64
2023-04-09T14:06:14.486Z,17.44
2023-04-09T14:08:40.949Z,17.43
2023-04-09T14:11:07.517Z,16.57
2023-04-09T14:11:07.705Z,16.57
2023-04-09T14:13:33.959Z,17.42
2023-04-09T14:16:00.641Z,17.74
2023-04-09T14:16:07.663Z,17.74
2023-04-09T14:18:27.145Z,17.31
2023-04-09T14:20:53.626Z,16.13
2023-04-09T14:21:08.699Z,16.13
2023-04-09T14:23:20.159Z,17.37
2023-04-09T14:25:46.560Z,17.77
2023-04-09T14:26:07.408Z,17.77
2023-04-09T14:28:12.927Z,17.38
2023-04-09T14:30:39.394Z,16.62
2023-04-09T14:31:07.474Z,16.62
2023-04-09T14:33:05.897Z,17.06
2023-04-09T14:35:32.334Z,17.62
2023-04-09T14:36:07.478Z,17.62
2023-04-09T14:37:58.710Z,17.50
2023-04-09T14:40:25.246Z,17.72
2023-04-09T14:41:07.412Z,17.72
2023-04-09T14:42:51.599Z,17.58
2023-04-09T14:45:18.017Z,17.27
2023-04-09T14:46:07.452Z,17.27
2023-04-09T14:47:44.556Z,16.99
2023-04-09T14:50:12.605Z,17.28
2023-04-09T14:51:07.414Z,17.28
2023-04-09T14:52:39.082Z,17.11
2023-04-09T14:55:08.972Z,16.98
2023-04-09T14:56:07.420Z,16.98
2023-04-09T14:57:35.349Z,17.10
2023-04-09T15:00:01.962Z,17.54
2023-04-09T15:01:07.383Z,17.54
2023-04-09T15:02:28.639Z,17.45
2023-04-09T15:04:55.285Z,17.07
2023-04-09T15:06:07.424Z,17.07
2023-04-09T15:07:23.820Z,16.99
2023-04-09T15:09:51.380Z,16.62
2023-04-09T15:11:07.444Z,16.62
2023-04-09T15:12:18.495Z,16.77
2023-04-09T15:14:44.917Z,16.18
2023-04-09T15:16:07.496Z,16.18
2023-04-09T15:17:11.315Z,16.45
2023-04-09T15:19:37.698Z,16.23
2023-04-09T15:21:07.491Z,16.23
2023-04-09T15:22:04.013Z,15.97
2023-04-09T15:24:30.404Z,16.17
2023-04-09T15:26:07.435Z,16.17
2023-04-09T15:26:56.915Z,16.40
2023-04-09T15:29:23.249Z,16.84
2023-04-09T15:31:07.515Z,16.84
2023-04-09T15:31:52.963Z,16.93
2023-04-09T15:34:19.415Z,16.83
2023-04-09T15:36:07.478Z,16.83
2023-04-09T15:36:46.136Z,16.95
2023-04-09T15:39:12.537Z,16.82
2023-04-09T15:41:07.448Z,16.82
2023-04-09T15:41:39.468Z,16.35
2023-04-09T15:44:07.814Z,16.27
2023-04-09T15:46:07.519Z,16.27
2023-04-09T15:46:34.379Z,16.43
2023-04-09T15:49:00.919Z,15.85
2023-04-09T15:51:07.442Z,15.85
2023-04-09T15:51:27.319Z,16.08
2023-04-09T15:53:53.729Z,15.79
2023-04-09T15:56:07.441Z,15.79
2023-04-09T15:56:20.230Z,15.28
2023-04-09T15:58:46.591Z,15.78
2023-04-09T16:01:07.460Z,15.78
2023-04-09T16:01:13.087Z,15.85
2023-04-09T16:03:40.947Z,15.59
2023-04-09T16:06:09.978Z,15.47
2023-04-09T16:06:10.188Z,15.47
2023-04-09T16:08:37.222Z,15.37
2023-04-09T16:11:04.900Z,14.90
2023-04-09T16:11:07.438Z,14.90
2023-04-09T16:13:31.403Z,14.74
2023-04-09T16:15:57.868Z,15.12
2023-04-09T16:16:07.513Z,15.12
2023-04-09T16:18:25.728Z,14.70
2023-04-09T16:20:56.459Z,14.96
2023-04-09T16:21:07.553Z,14.96
2023-04-09T16:23:29.065Z,14.76
2023-04-09T16:25:56.795Z,14.72
2023-04-09T16:26:07.444Z,14.72
2023-04-09T16:28:23.167Z,14.88
2023-04-09T16:30:50.856Z,14.81
2023-04-09T16:31:07.455Z,14.81
2023-04-09T16:33:17.341Z,14.71
2023-04-09T16:35:43.757Z,14.23
2023-04-09T16:36:07.420Z,14.23
2023-04-09T16:38:10.423Z,14.61
2023-04-09T16:40:36.946Z,14.40
2023-04-09T16:41:07.449Z,14.40
2023-04-09T16:43:03.638Z,14.42
2023-04-09T16:45:30.293Z,14.38
2023-04-09T16:46:07.663Z,14.38
2023-04-09T16:47:56.715Z,14.18
2023-04-09T16:50:23.398Z,14.29
2023-04-09T16:51:07.451Z,14.29
2023-04-09T16:52:49.812Z,14.09
2023-04-09T16:55:16.467Z,14.28
2023-04-09T16:56:07.447Z,14.28
2023-04-09T16:57:43.000Z,13.70
2023-04-09T17:00:10.474Z,14.07
2023-04-09T17:01:07.434Z,14.07
2023-04-09T17:02:37.064Z,13.94
2023-04-09T17:05:04.341Z,13.47
2023-04-09T17:06:07.448Z,13.47
2023-04-09T17:07:30.820Z,13.99
2023-04-09T17:09:57.224Z,13.88
2023-04-09T17:11:07.507Z,13.88
2023-04-09T17:12:24.431Z,13.92
2023-04-09T17:14:51.553Z,13.92
2023-04-09T17:16:07.435Z,13.92
2023-04-09T17:17:18.562Z,13.80
2023-04-09T17:19:45.113Z,12.67
2023-04-09T17:21:07.554Z,12.67
2023-04-09T17:22:13.394Z,13.62
2023-04-09T17:24:39.978Z,13.03
2023-04-09T17:26:07.451Z,13.03
2023-04-09T17:27:07.109Z,13.45
2023-04-09T17:29:34.290Z,13.48
2023-04-09T17:32:00.685Z,12.92
2023-04-09T17:34:27.210Z,13.26
2023-04-09T17:36:07.541Z,13.26
2023-04-09T17:36:57.202Z,12.76
2023-04-09T17:39:26.581Z,12.69
2023-04-09T17:41:07.766Z,12.69
2023-04-09T17:41:53.633Z,12.92
2023-04-09T17:44:20.574Z,12.95
2023-04-09T17:46:07.547Z,12.95
2023-04-09T17:46:47.094Z,12.95
2023-04-09T17:49:13.570Z,12.65
2023-04-09T17:51:07.464Z,12.65
2023-04-09T17:51:39.921Z,12.81
2023-04-09T17:54:06.648Z,12.65
2023-04-09T17:56:07.476Z,12.65
2023-04-09T17:56:35.374Z,12.58
2023-04-09T17:59:02.166Z,12.47
2023-04-09T18:01:07.625Z,12.47
2023-04-09T18:01:28.793Z,12.34
2023-04-09T18:03:55.453Z,12.16
2023-04-09T18:06:07.479Z,12.16
2023-04-09T18:06:21.964Z,11.67
2023-04-09T18:08:50.114Z,12.08
2023-04-09T18:11:18.351Z,11.82
2023-04-09T18:13:44.868Z,12.06
2023-04-09T18:16:07.550Z,12.06
2023-04-09T18:16:14.676Z,11.70
2023-04-09T18:18:41.351Z,11.55
2023-04-09T18:21:07.884Z,11.52
2023-04-09T18:21:08.542Z,11.52
2023-04-09T18:23:34.749Z,11.76
2023-04-09T18:26:01.160Z,11.27
2023-04-09T18:26:07.479Z,11.27
2023-04-09T18:28:28.107Z,11.53
2023-04-09T18:30:54.775Z,11.49
2023-04-09T18:31:07.466Z,11.49
2023-04-09T18:33:21.431Z,11.26
2023-04-09T18:35:48.949Z,11.24
2023-04-09T18:36:07.475Z,11.24
2023-04-09T18:38:15.418Z,11.25
2023-04-09T18:40:45.709Z,11.22
2023-04-09T18:41:07.475Z,11.22
2023-04-09T18:43:12.489Z,11.15
2023-04-09T18:45:41.812Z,10.72
2023-04-09T18:46:07.501Z,10.72
2023-04-09T18:48:08.955Z,10.82
2023-04-09T18:50:35.666Z,9.87
2023-04-09T18:51:07.511Z,9.87
2023-04-09T18:53:03.666Z,10.92
2023-04-09T18:55:30.397Z,10.86
2023-04-09T18:56:07.480Z,10.86
2023-04-09T18:57:57.463Z,10.41
2023-04-09T19:00:24.203Z,10.65
2023-04-09T19:01:07.466Z,10.65
2023-04-09T19:02:50.807Z,10.67
2023-04-09T19:05:17.533Z,10.51
2023-04-09T19:06:07.472Z,10.51
2023-04-09T19:07:43.835Z,10.37
2023-04-09T19:10:10.693Z,10.47
2023-04-09T19:11:08.493Z,10.47
2023-04-09T19:12:37.642Z,10.62
2023-04-09T19:15:04.769Z,10.58
2023-04-09T19:16:07.536Z,10.58
2023-04-09T19:17:31.877Z,10.49
2023-04-09T19:19:58.439Z,10.51
2023-04-09T19:21:07.571Z,10.51
2023-04-09T19:22:24.823Z,10.46
2023-04-09T19:24:51.494Z,10.35
2023-04-09T19:26:07.452Z,10.35
2023-04-09T19:27:18.578Z,9.88
2023-04-09T19:29:46.565Z,10.14
2023-04-09T19:31:07.508Z,10.14
2023-04-09T19:32:13.309Z,9.98
2023-04-09T19:34:39.821Z,10.05
2023-04-09T19:36:07.536Z,10.05
2023-04-09T19:37:06.201Z,9.79
2023-04-09T19:39:35.279Z,9.90
2023-04-09T19:41:07.496Z,9.90
2023-04-09T19:42:03.104Z,9.77
2023-04-09T19:44:29.425Z,9.81
2023-04-09T19:46:07.475Z,9.81
2023-04-09T19:46:55.808Z,9.31
2023-04-09T19:49:22.192Z,9.77
2023-04-09T19:51:07.490Z,9.77
2023-04-09T19:51:49.169Z,9.25
2023-04-09T19:54:16.532Z,9.07
2023-04-09T19:56:07.522Z,9.07
2023-04-09T19:56:42.977Z,9.57
2023-04-09T19:59:09.359Z,9.60
2023-04-09T20:01:07.496Z,9.60
2023-04-09T20:01:36.003Z,9.57
2023-04-09T20:04:02.682Z,9.57
2023-04-09T20:06:07.502Z,9.57
2023-04-09T20:06:30.737Z,9.59
2023-04-09T20:08:57.284Z,9.16
2023-04-09T20:11:07.466Z,9.16
2023-04-09T20:11:23.729Z,9.45
2023-04-09T20:13:50.231Z,9.49
2023-04-09T20:16:07.487Z,9.49
2023-04-09T20:16:17.000Z,8.37
2023-04-09T20:18:43.527Z,9.41
2023-04-09T20:21:07.567Z,9.41
2023-04-09T20:21:13.973Z,9.36
2023-04-09T20:23:40.759Z,9.26
2023-04-09T20:26:09.639Z,8.72
2023-04-09T20:26:09.801Z,8.72
2023-04-09T20:28:36.009Z,8.88
2023-04-09T20:31:06.080Z,9.15
2023-04-09T20:31:07.480Z,9.15
2023-04-09T20:33:32.467Z,9.09
2023-04-09T20:35:59.147Z,8.99
2023-04-09T20:36:07.491Z,8.99
2023-04-09T20:38:25.688Z,9.01
2023-04-09T20:40:52.741Z,8.93
2023-04-09T20:41:07.517Z,8.93
2023-04-09T20:43:20.323Z,8.87
2023-04-09T20:45:47.376Z,8.87
2023-04-09T20:46:07.568Z,8.87
2023-04-09T20:48:14.835Z,8.81
2023-04-09T20:50:41.326Z,8.35
2023-04-09T20:51:07.524Z,8.35
2023-04-09T20:53:07.967Z,8.42
2023-04-09T20:55:35.618Z,8.74
2023-04-09T20:56:07.479Z,8.74
2023-04-09T20:58:02.826Z,8.71
2023-04-09T21:00:29.636Z,8.35
2023-04-09T21:01:07.554Z,8.35
2023-04-09T21:02:56.146Z,8.42
2023-04-09T21:05:24.250Z,8.36
2023-04-09T21:06:07.480Z,8.36
2023-04-09T21:07:52.367Z,8.34
2023-04-09T21:10:19.042Z,8.33
2023-04-09T21:11:07.491Z,8.33
2023-04-09T21:12:45.581Z,8.39
2023-04-09T21:15:11.964Z,8.42
2023-04-09T21:16:07.481Z,8.42
2023-04-09T21:17:38.443Z,8.03
2023-04-09T21:20:05.624Z,8.19
2023-04-09T21:21:07.605Z,8.19
2023-04-09T21:22:33.697Z,8.11
2023-04-09T21:25:00.145Z,8.13
2023-04-09T21:26:07.469Z,8.13
2023-04-09T21:27:26.602Z,8.09
2023-04-09T21:29:53.594Z,7.46
2023-04-09T21:31:07.657Z,7.46
2023-04-09T21:32:20.114Z,8.15
2023-04-09T21:34:46.543Z,7.92
2023-04-09T21:36:07.540Z,7.92
2023-04-09T21:37:12.986Z,8.14